createdAt,value
2023-01-21T00:01:19.273Z,0.89
2023-01-21T00:03:47.404Z,0.95
2023-01-21T00:06:15.522Z,0.98
2023-01-21T00:08:44.054Z,0.97
2023-01-21T00:11:15.324Z,1.01
2023-01-21T00:13:44.726Z,1.02
2023-01-21T00:16:13.508Z,1.03
2023-01-21T00:18:41.950Z,1.01
2023-01-21T00:21:10.866Z,1.04
2023-01-21T00:23:38.963Z,1.02
2023-01-21T00:26:10.249Z,1.06
2023-01-21T00:28:40.172Z,1.02
2023-01-21T00:31:09.285Z,1.04
2023-01-21T00:33:38.258Z,1.05
2023-01-21T00:36:11.955Z,1.11
2023-01-21T00:38:40.669Z,1.08
2023-01-21T00:41:13.888Z,1.09
2023-01-21T00:43:43.422Z,1.08
2023-01-21T00:46:12.036Z,1.06
2023-01-21T00:48:40.624Z,1.08
2023-01-21T00:51:09.955Z,1.07
2023-01-21T00:53:42.141Z,1.09
2023-01-21T00:56:13.083Z,1.12
2023-01-21T00:58:43.540Z,1.07
2023-01-21T01:01:14.129Z,1.10
2023-01-21T01:03:42.592Z,1.08
2023-01-21T01:06:15.984Z,1.04
2023-01-21T01:08:45.678Z,1.01
2023-01-21T01:11:14.554Z,1.03
2023-01-21T01:13:43.835Z,0.97
2023-01-21T01:16:16.220Z,0.93
2023-01-21T01:18:44.330Z,0.95
2023-01-21T01:21:15.066Z,0.95
2023-01-21T01:23:44.342Z,0.95
2023-01-21T01:26:14.943Z,0.98
2023-01-21T01:28:43.459Z,0.91
2023-01-21T01:31:14.800Z,0.94
2023-01-21T01:33:43.409Z,0.92
2023-01-21T01:36:17.538Z,0.98
2023-01-21T01:38:46.167Z,1.03
2023-01-21T01:41:22.986Z,1.07
2023-01-21T01:43:55.467Z,1.07
2023-01-21T01:46:25.613Z,1.12
2023-01-21T01:49:16.900Z,1.08
2023-01-21T01:51:48.018Z,1.08
2023-01-21T01:54:21.063Z,1.12
2023-01-21T01:56:54.007Z,1.15
2023-01-21T01:59:22.396Z,1.15
2023-01-21T02:01:50.416Z,1.18
2023-01-21T02:04:23.281Z,1.21
2023-01-21T02:06:54.464Z,1.20
2023-01-21T02:09:23.491Z,1.16
2023-01-21T02:11:51.654Z,1.15
2023-01-21T02:14:19.694Z,1.19
2023-01-21T02:16:58.068Z,1.21
2023-01-21T02:19:41.698Z,1.13
2023-01-21T02:22:17.749Z,1.19
2023-01-21T02:25:04.370Z,1.25
2023-01-21T02:27:51.303Z,1.22
2023-01-21T02:30:28.543Z,1.24
2023-01-21T02:33:20.336Z,1.22
2023-01-21T02:36:15.657Z,1.13
2023-01-21T02:39:04.302Z,1.17
2023-01-21T02:42:14.164Z,1.20
2023-01-21T02:44:51.196Z,1.14
2023-01-21T02:47:34.557Z,1.18
2023-01-21T02:50:13.045Z,1.15
2023-01-21T02:52:43.595Z,1.14
2023-01-21T02:55:16.971Z,1.12
2023-01-21T02:57:53.645Z,1.06
2023-01-21T03:00:34.040Z,1.08
2023-01-21T03:03:25.491Z,1.08
2023-01-21T03:06:18.591Z,1.07
2023-01-21T03:08:57.785Z,1.10
2023-01-21T03:11:26.131Z,1.11
2023-01-21T03:14:19.917Z,1.10
2023-01-21T03:16:58.127Z,1.07
2023-01-21T03:19:43.297Z,1.09
2023-01-21T03:22:19.697Z,1.13
2023-01-21T03:24:51.827Z,1.13
2023-01-21T03:27:23.925Z,1.15
2023-01-21T03:29:59.554Z,1.12
2023-01-21T03:32:31.519Z,1.10
2023-01-21T03:35:01.783Z,1.18
2023-01-21T03:38:08.186Z,1.19
2023-01-21T03:40:40.667Z,1.15
2023-01-21T03:43:10.563Z,1.11
2023-01-21T03:45:57.057Z,1.12
2023-01-21T03:48:48.403Z,1.12
2023-01-21T03:51:29.990Z,1.09
2023-01-21T03:53:59.804Z,1.11
2023-01-21T03:56:28.980Z,1.15
2023-01-21T03:58:57.096Z,1.14
2023-01-21T04:01:25.165Z,1.12
2023-01-21T04:03:53.223Z,1.07
2023-01-21T04:06:23.326Z,1.08
2023-01-21T04:08:51.417Z,1.08
2023-01-21T04:11:19.537Z,1.08
2023-01-21T04:13:47.551Z,1.09
2023-01-21T04:16:15.546Z,1.08
2023-01-21T04:18:43.647Z,1.07
2023-01-21T04:21:12.101Z,1.08
2023-01-21T04:23:41.320Z,1.07
2023-01-21T04:26:09.508Z,1.05
2023-01-21T04:28:37.625Z,1.11
2023-01-21T04:31:05.733Z,1.11
2023-01-21T04:33:33.936Z,1.13
2023-01-21T04:36:02.071Z,1.16
2023-01-21T04:38:30.193Z,1.14
2023-01-21T04:40:58.102Z,1.12
2023-01-21T04:43:26.123Z,1.13
2023-01-21T04:45:54.203Z,1.17
2023-01-21T04:48:23.287Z,1.10
2023-01-21T04:50:51.327Z,1.14
2023-01-21T04:53:19.278Z,1.17
2023-01-21T04:55:47.411Z,1.17
2023-01-21T04:58:15.525Z,1.18
2023-01-21T05:00:43.579Z,1.15
2023-01-21T05:03:12.115Z,1.10
2023-01-21T05:05:40.174Z,1.14
2023-01-21T05:08:08.175Z,1.07
2023-01-21T05:10:36.367Z,1.13
2023-01-21T05:13:04.658Z,1.09
2023-01-21T05:15:33.101Z,1.07
2023-01-21T05:18:01.552Z,1.06
2023-01-21T05:20:29.528Z,1.08
2023-01-21T05:22:58.125Z,1.06
2023-01-21T05:25:26.180Z,1.08
2023-01-21T05:27:55.168Z,1.02
2023-01-21T05:30:23.171Z,0.98
2023-01-21T05:32:54.879Z,1.00
2023-01-21T05:35:25.574Z,0.97
2023-01-21T05:37:53.654Z,0.99
2023-01-21T05:40:21.742Z,1.01
2023-01-21T05:42:49.789Z,0.93
2023-01-21T05:45:18.127Z,0.92
2023-01-21T05:47:46.085Z,0.92
2023-01-21T05:50:14.315Z,0.97
2023-01-21T05:52:42.716Z,0.96
2023-01-21T05:55:10.835Z,0.98
2023-01-21T05:57:38.812Z,0.96
2023-01-21T06:00:07.684Z,0.96
2023-01-21T06:02:35.720Z,1.00
2023-01-21T06:05:04.124Z,1.00
2023-01-21T06:07:32.341Z,1.03
2023-01-21T06:10:00.402Z,1.01
2023-01-21T06:12:29.813Z,1.03
2023-01-21T06:14:57.867Z,1.04
2023-01-21T06:17:26.353Z,1.07
2023-01-21T06:19:54.634Z,1.05
2023-01-21T06:22:22.818Z,1.09
2023-01-21T06:24:50.745Z,1.11
2023-01-21T06:27:18.801Z,1.16
2023-01-21T06:29:46.820Z,1.22
2023-01-21T06:32:14.829Z,1.23
2023-01-21T06:34:45.179Z,1.20
2023-01-21T06:37:15.662Z,1.16
2023-01-21T06:39:43.554Z,1.26
2023-01-21T06:42:11.777Z,1.29
2023-01-21T06:44:40.284Z,1.30
2023-01-21T06:47:08.379Z,1.32
2023-01-21T06:49:36.385Z,1.34
2023-01-21T06:52:04.716Z,1.35
2023-01-21T06:54:32.924Z,1.37
2023-01-21T06:57:01.957Z,1.44
2023-01-21T06:59:31.565Z,1.46
2023-01-21T07:01:59.814Z,1.47
2023-01-21T07:04:28.438Z,1.45
2023-01-21T07:06:56.398Z,1.48
2023-01-21T07:09:27.522Z,1.55
2023-01-21T07:11:55.727Z,1.52
2023-01-21T07:14:23.779Z,1.50
2023-01-21T07:16:51.704Z,1.52
2023-01-21T07:19:20.259Z,1.53
2023-01-21T07:21:48.426Z,1.57
2023-01-21T07:24:16.383Z,1.66
2023-01-21T07:26:44.550Z,1.72
2023-01-21T07:29:12.602Z,1.75
2023-01-21T07:31:40.862Z,1.82
2023-01-21T07:34:10.028Z,1.86
2023-01-21T07:36:37.984Z,1.92
2023-01-21T07:39:06.136Z,2.01
2023-01-21T07:41:34.421Z,2.02
2023-01-21T07:44:04.600Z,2.04
2023-01-21T07:46:33.337Z,2.01
2023-01-21T07:49:01.799Z,2.08
2023-01-21T07:51:29.922Z,2.12
2023-01-21T07:53:58.642Z,2.22
2023-01-21T07:56:27.335Z,2.26
2023-01-21T07:58:56.289Z,2.26
2023-01-21T08:01:28.668Z,2.39
2023-01-21T08:04:01.317Z,2.42
2023-01-21T08:06:29.257Z,2.35
2023-01-21T08:08:57.291Z,2.49
2023-01-21T08:11:25.303Z,2.55
2023-01-21T08:13:53.343Z,2.60
2023-01-21T08:16:21.919Z,2.61
2023-01-21T08:18:51.206Z,2.66
2023-01-21T08:21:21.032Z,2.54
2023-01-21T08:23:49.316Z,2.54
2023-01-21T08:26:17.401Z,2.53
2023-01-21T08:28:45.387Z,2.65
2023-01-21T08:31:14.348Z,2.60
2023-01-21T08:33:42.673Z,2.59
2023-01-21T08:36:10.899Z,2.66
2023-01-21T08:38:40.214Z,2.71
2023-01-21T08:41:08.414Z,2.72
2023-01-21T08:43:37.011Z,2.77
2023-01-21T08:46:05.697Z,2.85
2023-01-21T08:48:34.351Z,2.73
2023-01-21T08:51:02.432Z,2.76
2023-01-21T08:53:31.044Z,2.76
2023-01-21T08:56:01.171Z,2.84
2023-01-21T08:58:30.325Z,2.87
2023-01-21T09:00:59.818Z,2.91
2023-01-21T09:03:29.986Z,2.92
2023-01-21T09:06:02.280Z,3.00
2023-01-21T09:08:30.796Z,3.13
2023-01-21T09:11:01.901Z,3.17
2023-01-21T09:13:34.254Z,3.19
2023-01-21T09:16:07.258Z,3.13
2023-01-21T09:18:36.553Z,3.16
2023-01-21T09:21:06.437Z,3.20
2023-01-21T09:23:36.022Z,3.20
2023-01-21T09:26:05.537Z,3.29
2023-01-21T09:28:39.130Z,3.28
2023-01-21T09:31:10.499Z,3.33
2023-01-21T09:33:41.444Z,3.32
2023-01-21T09:36:14.419Z,3.31
2023-01-21T09:38:47.267Z,3.26
2023-01-21T09:41:40.416Z,3.26
2023-01-21T09:44:33.494Z,3.37
2023-01-21T09:47:33.932Z,3.39
2023-01-21T09:50:18.982Z,3.51
2023-01-21T09:52:51.460Z,3.48
2023-01-21T09:55:31.913Z,3.46
2023-01-21T09:58:03.782Z,3.50
2023-01-21T10:00:44.734Z,3.55
2023-01-21T10:03:50.322Z,3.57
2023-01-21T10:06:40.492Z,3.60
2023-01-21T10:09:26.765Z,3.63
2023-01-21T10:12:07.260Z,3.68
2023-01-21T10:14:59.266Z,3.74
2023-01-21T10:17:27.475Z,3.83
2023-01-21T10:20:06.090Z,3.99
2023-01-21T10:22:35.479Z,3.99
2023-01-21T10:25:18.551Z,3.95
2023-01-21T10:27:47.288Z,3.88
2023-01-21T10:30:22.974Z,3.98
2023-01-21T10:32:53.131Z,3.97
2023-01-21T10:35:36.688Z,4.02
2023-01-21T10:38:27.073Z,4.07
2023-01-21T10:41:11.354Z,4.08
2023-01-21T10:44:25.860Z,4.25
2023-01-21T10:47:14.620Z,4.40
2023-01-21T10:49:59.622Z,4.35
2023-01-21T10:52:45.345Z,4.56
2023-01-21T10:55:38.454Z,4.64
2023-01-21T10:58:41.421Z,4.74
2023-01-21T11:01:35.587Z,4.69
2023-01-21T11:04:23.394Z,4.67
2023-01-21T11:07:00.472Z,4.65
2023-01-21T11:09:35.066Z,4.71
2023-01-21T11:12:03.508Z,4.58
2023-01-21T11:14:33.779Z,4.67
2023-01-21T11:17:03.048Z,4.56
2023-01-21T11:19:31.609Z,4.66
2023-01-21T11:22:18.268Z,4.70
2023-01-21T11:24:51.987Z,4.63
2023-01-21T11:27:21.008Z,4.74
2023-01-21T11:29:50.432Z,4.78
2023-01-21T11:32:28.922Z,4.67
2023-01-21T11:35:13.493Z,4.63
2023-01-21T11:37:46.590Z,4.45
2023-01-21T11:40:24.163Z,4.53
2023-01-21T11:42:57.265Z,4.54
2023-01-21T11:45:37.031Z,4.68
2023-01-21T11:48:21.320Z,4.55
2023-01-21T11:50:49.595Z,4.64
2023-01-21T11:53:19.867Z,4.50
2023-01-21T11:55:54.358Z,4.69
2023-01-21T11:58:35.835Z,4.82
2023-01-21T12:01:08.955Z,4.98
2023-01-21T12:03:48.598Z,4.99
2023-01-21T12:06:27.696Z,4.97
2023-01-21T12:09:00.395Z,4.86
2023-01-21T12:11:31.066Z,4.77
2023-01-21T12:14:33.810Z,4.79
2023-01-21T12:17:29.785Z,4.77
2023-01-21T12:20:00.678Z,4.79
2023-01-21T12:23:01.297Z,4.74
2023-01-21T12:26:03.191Z,4.73
2023-01-21T12:31:42.844Z,5.13
2023-01-21T12:34:37.177Z,5.10
2023-01-21T12:37:20.794Z,4.98
2023-01-21T12:39:52.044Z,4.87
2023-01-21T12:42:32.855Z,4.69
2023-01-21T12:45:05.837Z,4.57
2023-01-21T12:48:04.707Z,4.53
2023-01-21T12:50:54.539Z,4.37
2023-01-21T12:53:39.195Z,4.43
2023-01-21T12:56:13.508Z,4.38
2023-01-21T12:58:59.244Z,4.28
2023-01-21T13:01:54.389Z,4.26
2023-01-21T13:04:47.165Z,4.15
2023-01-21T13:07:22.064Z,4.22
2023-01-21T13:09:58.607Z,4.27
2023-01-21T13:12:32.842Z,4.33
2023-01-21T13:15:21.661Z,4.39
2023-01-21T13:17:55.341Z,4.67
2023-01-21T13:20:24.993Z,4.74
2023-01-21T13:23:05.023Z,4.82
2023-01-21T13:25:51.185Z,5.03
2023-01-21T13:28:45.325Z,5.18
2023-01-21T13:31:19.273Z,5.27
2023-01-21T13:34:02.176Z,5.23
2023-01-21T13:36:47.445Z,5.32
2023-01-21T13:40:09.801Z,5.48
2023-01-21T13:42:58.011Z,5.59
2023-01-21T13:45:43.887Z,5.44
2023-01-21T13:48:35.547Z,5.42
2023-01-21T13:51:18.145Z,5.22
2023-01-21T13:54:24.412Z,5.32
2023-01-21T13:57:04.340Z,5.36
2023-01-21T13:59:40.088Z,5.33
2023-01-21T14:02:24.657Z,5.37
2023-01-21T14:05:11.196Z,5.23
2023-01-21T14:07:42.242Z,5.20
2023-01-21T14:10:19.989Z,5.14
2023-01-21T14:13:06.529Z,5.06
2023-01-21T14:16:15.609Z,4.93
2023-01-21T14:18:59.051Z,4.94
2023-01-21T14:21:42.868Z,4.83
2023-01-21T14:24:52.713Z,4.75
2023-01-21T14:27:20.743Z,4.67
2023-01-21T14:30:04.914Z,4.65
2023-01-21T14:32:42.440Z,4.45
2023-01-21T14:35:29.948Z,4.49
2023-01-21T14:38:36.930Z,4.43
2023-01-21T14:41:10.829Z,4.42
2023-01-21T14:43:40.565Z,4.41
2023-01-21T14:47:05.230Z,4.28
2023-01-21T14:49:47.684Z,4.30
2023-01-21T14:52:19.191Z,4.30
2023-01-21T14:54:48.842Z,4.25
2023-01-21T14:57:41.602Z,4.24
2023-01-21T15:00:39.122Z,4.21
2023-01-21T15:03:19.452Z,4.20
2023-01-21T15:05:52.579Z,4.24
2023-01-21T15:08:25.529Z,4.25
2023-01-21T15:11:05.475Z,4.22
2023-01-21T15:13:33.549Z,4.24
2023-01-21T15:16:27.252Z,4.17
2023-01-21T15:19:07.987Z,4.18
2023-01-21T15:22:01.334Z,4.11
2023-01-21T15:24:35.858Z,4.08
2023-01-21T15:27:20.467Z,4.06
2023-01-21T15:29:58.543Z,4.04
2023-01-21T15:32:36.848Z,4.08
2023-01-21T15:35:33.636Z,4.07
2023-01-21T15:38:10.392Z,4.08
2023-01-21T15:40:51.027Z,4.11
2023-01-21T15:43:40.263Z,4.10
2023-01-21T15:46:27.310Z,4.03
2023-01-21T15:49:40.687Z,4.01
2023-01-21T15:52:37.050Z,4.01
2023-01-21T15:55:39.181Z,4.02
2023-01-21T15:58:11.811Z,4.01
2023-01-21T16:00:50.560Z,3.94
2023-01-21T16:03:35.476Z,3.88
2023-01-21T16:06:33.093Z,3.79
2023-01-21T16:09:07.683Z,3.75
2023-01-21T16:11:44.644Z,3.64
2023-01-21T16:14:37.979Z,3.58
2023-01-21T16:17:18.244Z,3.52
2023-01-21T16:19:52.153Z,3.46
2023-01-21T16:22:29.845Z,3.48
2023-01-21T16:25:03.034Z,3.51
2023-01-21T16:27:32.454Z,3.52
2023-01-21T16:30:05.776Z,3.49
2023-01-21T16:32:34.958Z,3.52
2023-01-21T16:35:03.313Z,3.51
2023-01-21T16:37:32.921Z,3.48
2023-01-21T16:40:11.653Z,3.45
2023-01-21T16:42:44.220Z,3.43
2023-01-21T16:45:22.985Z,3.42
2023-01-21T16:47:57.311Z,3.37
2023-01-21T16:50:33.020Z,3.36
2023-01-21T16:53:08.208Z,3.36
2023-01-21T16:55:44.937Z,3.29
2023-01-21T16:58:46.795Z,3.28
2023-01-21T17:01:17.132Z,3.27
2023-01-21T17:03:47.766Z,3.29
2023-01-21T17:06:21.850Z,3.31
2023-01-21T17:08:56.803Z,3.30
2023-01-21T17:11:24.983Z,3.26
2023-01-21T17:13:54.060Z,3.30
2023-01-21T17:16:27.759Z,3.29
2023-01-21T17:19:03.852Z,3.27
2023-01-21T17:21:44.750Z,3.21
2023-01-21T17:24:34.363Z,3.17
2023-01-21T17:27:08.583Z,3.14
2023-01-21T17:29:38.994Z,3.09
2023-01-21T17:32:22.337Z,3.10
2023-01-21T17:35:12.497Z,3.07
2023-01-21T17:37:44.266Z,3.05
2023-01-21T17:40:34.339Z,3.05
2023-01-21T17:43:11.302Z,3.01
2023-01-21T17:45:45.024Z,3.00
2023-01-21T17:48:35.862Z,2.96
2023-01-21T17:51:16.408Z,2.91
2023-01-21T17:53:56.166Z,2.90
2023-01-21T17:56:37.672Z,2.90
2023-01-21T17:59:37.814Z,2.86
2023-01-21T18:02:22.193Z,2.79
2023-01-21T18:04:50.607Z,2.77
2023-01-21T18:07:32.692Z,2.69
2023-01-21T18:10:09.938Z,2.64
2023-01-21T18:12:38.249Z,2.56
2023-01-21T18:15:07.188Z,2.52
2023-01-21T18:17:37.754Z,2.46
2023-01-21T18:20:15.366Z,2.42
2023-01-21T18:22:43.970Z,2.36
2023-01-21T18:25:15.360Z,2.32
2023-01-21T18:27:47.040Z,2.29
2023-01-21T18:30:19.617Z,2.24
2023-01-21T18:32:49.788Z,2.18
2023-01-21T18:35:22.648Z,2.15
2023-01-21T18:37:50.737Z,2.14
2023-01-21T18:40:22.683Z,2.10
2023-01-21T18:42:55.491Z,2.08
2023-01-21T18:45:28.539Z,2.05
2023-01-21T18:47:58.848Z,2.01
2023-01-21T18:50:30.160Z,2.00
2023-01-21T18:52:58.672Z,1.99
2023-01-21T18:55:29.193Z,1.97
2023-01-21T18:57:57.340Z,1.96
2023-01-21T19:00:32.713Z,1.97
2023-01-21T19:03:01.748Z,1.90
2023-01-21T19:05:34.598Z,1.79
2023-01-21T19:08:03.035Z,1.78
2023-01-21T19:10:31.098Z,1.72
2023-01-21T19:12:59.157Z,1.65
2023-01-21T19:15:28.809Z,1.66
2023-01-21T19:17:57.716Z,1.63
2023-01-21T19:20:41.000Z,1.61
2023-01-21T19:23:17.439Z,1.58
2023-01-21T19:25:54.718Z,1.55
2023-01-21T19:28:23.902Z,1.53
2023-01-21T19:30:55.565Z,1.50
2023-01-21T19:33:24.629Z,1.47
2023-01-21T19:36:00.002Z,1.43
2023-01-21T19:38:28.393Z,1.40
2023-01-21T19:40:56.739Z,1.39
2023-01-21T19:43:25.151Z,1.37
2023-01-21T19:45:53.572Z,1.37
2023-01-21T19:48:24.969Z,1.37
2023-01-21T19:50:52.954Z,1.36
2023-01-21T19:53:22.375Z,1.36
2023-01-21T19:55:51.106Z,1.37
2023-01-21T19:58:25.375Z,1.37
2023-01-21T20:00:54.279Z,1.37
2023-01-21T20:03:24.558Z,1.38
2023-01-21T20:05:55.358Z,1.40
2023-01-21T20:08:26.797Z,1.41
2023-01-21T20:10:55.084Z,1.44
2023-01-21T20:13:23.623Z,1.46
2023-01-21T20:15:52.624Z,1.46
2023-01-21T20:18:26.272Z,1.49
2023-01-21T20:20:54.646Z,1.51
2023-01-21T20:23:23.883Z,1.53
2023-01-21T20:25:55.278Z,1.58
2023-01-21T20:28:26.675Z,1.61
2023-01-21T20:30:56.411Z,1.63
2023-01-21T20:33:26.521Z,1.66
2023-01-21T20:35:56.621Z,1.68
2023-01-21T20:38:35.978Z,1.68
2023-01-21T20:41:05.591Z,1.67
2023-01-21T20:43:34.347Z,1.66
2023-01-21T20:46:06.617Z,1.63
2023-01-21T20:48:41.530Z,1.58
2023-01-21T20:51:10.958Z,1.54
2023-01-21T20:53:39.460Z,1.55
2023-01-21T20:56:29.100Z,1.52
2023-01-21T20:58:58.321Z,1.48
2023-01-21T21:01:29.520Z,1.51
2023-01-21T21:03:57.678Z,1.54
2023-01-21T21:06:29.450Z,1.53
2023-01-21T21:08:58.419Z,1.55
2023-01-21T21:11:26.369Z,1.54
2023-01-21T21:13:54.637Z,1.52
2023-01-21T21:16:30.562Z,1.55
2023-01-21T21:19:00.751Z,1.53
2023-01-21T21:21:28.907Z,1.55
2023-01-21T21:23:56.926Z,1.54
2023-01-21T21:26:30.233Z,1.56
2023-01-21T21:28:58.333Z,1.55
2023-01-21T21:31:32.000Z,1.55
2023-01-21T21:34:00.524Z,1.54
2023-01-21T21:36:30.000Z,1.52
2023-01-21T21:39:00.217Z,1.46
2023-01-21T21:41:46.913Z,1.37
2023-01-21T21:44:15.017Z,1.32
2023-01-21T21:47:02.524Z,1.34
2023-01-21T21:49:30.606Z,1.29
2023-01-21T21:52:00.449Z,1.32
2023-01-21T21:54:31.271Z,1.32
2023-01-21T21:56:59.434Z,1.35
2023-01-21T21:59:27.369Z,1.41
2023-01-21T22:01:55.706Z,1.45
2023-01-21T22:04:24.913Z,1.40
2023-01-21T22:06:58.297Z,1.41
2023-01-21T22:09:26.289Z,1.42
2023-01-21T22:11:54.454Z,1.38
2023-01-21T22:14:22.517Z,1.36
2023-01-21T22:16:51.575Z,1.39
2023-01-21T22:19:19.772Z,1.40
2023-01-21T22:21:47.754Z,1.42
2023-01-21T22:24:15.854Z,1.46
2023-01-21T22:26:43.899Z,1.48
2023-01-21T22:29:12.790Z,1.46
2023-01-21T22:31:41.045Z,1.45
2023-01-21T22:34:11.265Z,1.42
2023-01-21T22:36:40.118Z,1.41
2023-01-21T22:39:08.742Z,1.39
2023-01-21T22:41:36.785Z,1.33
2023-01-21T22:44:05.227Z,1.20
2023-01-21T22:46:34.297Z,1.17
2023-01-21T22:49:02.345Z,1.12
2023-01-21T22:51:30.587Z,1.08
2023-01-21T22:54:01.394Z,1.01
2023-01-21T22:56:49.496Z,0.96
2023-01-21T22:59:17.494Z,0.94
2023-01-21T23:01:45.618Z,0.89
2023-01-21T23:04:14.871Z,0.84
2023-01-21T23:06:44.747Z,0.83
2023-01-21T23:09:15.472Z,0.82
2023-01-21T23:11:45.210Z,0.82
2023-01-21T23:14:13.403Z,0.81
2023-01-21T23:16:41.506Z,0.78
2023-01-21T23:19:09.591Z,0.78
2023-01-21T23:21:38.508Z,0.78
2023-01-21T23:24:07.463Z,0.77
2023-01-21T23:26:35.779Z,0.77
2023-01-21T23:29:04.800Z,0.79
2023-01-21T23:31:32.854Z,0.81
2023-01-21T23:34:00.873Z,0.85
2023-01-21T23:36:30.223Z,0.86
2023-01-21T23:38:58.283Z,0.87
2023-01-21T23:41:27.028Z,0.87
2023-01-21T23:43:59.702Z,0.89
2023-01-21T23:46:27.973Z,0.93
2023-01-21T23:48:55.962Z,0.95
2023-01-21T23:51:23.952Z,0.95
2023-01-21T23:53:51.883Z,0.95
2023-01-21T23:56:22.042Z,0.99
2023-01-21T23:58:50.963Z,1.02
